sensor_id;sensor_type;location;lat;lon;timestamp;P1;durP1;ratioP1;P2;durP2;ratioP2
2023;SDS011;1016;48.770;9.154;2023-10-13T00:00:27;35.07;;;6.03;;
2023;SDS011;1016;48.770;9.154;2023-10-13T00:02:55;33.57;;;5.70;;
2023;SDS011;1016;48.770;9.154;2023-10-13T00:05:25;31.50;;;4.80;;
2023;SDS011;1016;48.770;9.154;2023-10-13T00:07:51;33.20;;;5.70;;
2023;SDS011;1016;48.770;9.154;2023-10-13T00:10:17;31.47;;;5.00;;
2023;SDS011;1016;48.770;9.154;2023-10-13T00:12:43;36.70;;;5.37;;
2023;SDS011;1016;48.770;9.154;2023-10-13T00:15:16;32.87;;;5.50;;
2023;SDS011;1016;48.770;9.154;2023-10-13T00:17:43;33.03;;;5.53;;
2023;SDS011;1016;48.770;9.154;2023-10-13T00:20:09;31.27;;;5.30;;
2023;SDS011;1016;48.770;9.154;2023-10-13T00:22:57;33.23;;;5.60;;
2023;SDS011;1016;48.770;9.154;2023-10-13T00:25:23;33.13;;;5.60;;
2023;SDS011;1016;48.770;9.154;2023-10-13T00:27:52;32.33;;;5.63;;
2023;SDS011;1016;48.770;9.154;2023-10-13T00:30:18;31.27;;;5.90;;
2023;SDS011;1016;48.770;9.154;2023-10-13T00:32:58;32.47;;;5.43;;
2023;SDS011;1016;48.770;9.154;2023-10-13T00:35:29;31.93;;;5.30;;
2023;SDS011;1016;48.770;9.154;2023-10-13T00:38:01;32.80;;;5.40;;
2023;SDS011;1016;48.770;9.154;2023-10-13T00:40:38;31.57;;;5.20;;
2023;SDS011;1016;48.770;9.154;2023-10-13T00:43:07;33.13;;;5.37;;
2023;SDS011;1016;48.770;9.154;2023-10-13T00:45:57;31.17;;;5.30;;
2023;SDS011;1016;48.770;9.154;2023-10-13T00:48:42;31.17;;;5.40;;
2023;SDS011;1016;48.770;9.154;2023-10-13T00:51:11;31.30;;;5.13;;
2023;SDS011;1016;48.770;9.154;2023-10-13T00:53:48;32.60;;;5.77;;
2023;SDS011;1016;48.770;9.154;2023-10-13T00:56:17;32.50;;;5.20;;
2023;SDS011;1016;48.770;9.154;2023-10-13T00:58:53;31.90;;;5.90;;
2023;SDS011;1016;48.770;9.154;2023-10-13T01:01:21;32.33;;;5.37;;
2023;SDS011;1016;48.770;9.154;2023-10-13T01:03:51;32.70;;;5.43;;
2023;SDS011;1016;48.770;9.154;2023-10-13T01:06:24;30.90;;;5.73;;
2023;SDS011;1016;48.770;9.154;2023-10-13T01:08:56;31.47;;;5.57;;
2023;SDS011;1016;48.770;9.154;2023-10-13T01:11:25;32.00;;;5.13;;
2023;SDS011;1016;48.770;9.154;2023-10-13T01:13:54;34.00;;;5.60;;
2023;SDS011;1016;48.770;9.154;2023-10-13T01:16:22;30.53;;;5.00;;
2023;SDS011;1016;48.770;9.154;2023-10-13T01:18:51;34.13;;;5.70;;
2023;SDS011;1016;48.770;9.154;2023-10-13T01:21:17;31.97;;;5.40;;
2023;SDS011;1016;48.770;9.154;2023-10-13T01:23:52;31.87;;;5.30;;
2023;SDS011;1016;48.770;9.154;2023-10-13T01:26:18;32.40;;;6.17;;
2023;SDS011;1016;48.770;9.154;2023-10-13T01:28:49;33.00;;;5.20;;
2023;SDS011;1016;48.770;9.154;2023-10-13T01:31:24;32.33;;;5.30;;
2023;SDS011;1016;48.770;9.154;2023-10-13T01:33:52;35.90;;;5.80;;
2023;SDS011;1016;48.770;9.154;2023-10-13T01:36:20;34.20;;;5.23;;
2023;SDS011;1016;48.770;9.154;2023-10-13T01:38:47;37.57;;;6.03;;
2023;SDS011;1016;48.770;9.154;2023-10-13T01:41:13;32.50;;;5.50;;
2023;SDS011;1016;48.770;9.154;2023-10-13T01:43:39;30.57;;;4.90;;
2023;SDS011;1016;48.770;9.154;2023-10-13T01:46:05;30.97;;;5.47;;
2023;SDS011;1016;48.770;9.154;2023-10-13T01:48:30;36.50;;;5.60;;
2023;SDS011;1016;48.770;9.154;2023-10-13T01:50:57;33.13;;;5.47;;
2023;SDS011;1016;48.770;9.154;2023-10-13T01:53:26;33.43;;;5.70;;
2023;SDS011;1016;48.770;9.154;2023-10-13T01:55:55;32.07;;;5.23;;
2023;SDS011;1016;48.770;9.154;2023-10-13T01:58:24;33.40;;;5.53;;
2023;SDS011;1016;48.770;9.154;2023-10-13T02:00:54;32.47;;;5.30;;
2023;SDS011;1016;48.770;9.154;2023-10-13T02:03:21;32.30;;;5.63;;
2023;SDS011;1016;48.770;9.154;2023-10-13T02:05:48;32.97;;;5.37;;
2023;SDS011;1016;48.770;9.154;2023-10-13T02:08:14;33.38;;;6.00;;
2023;SDS011;1016;48.770;9.154;2023-10-13T02:10:50;34.13;;;5.70;;
2023;SDS011;1016;48.770;9.154;2023-10-13T02:13:17;32.30;;;5.57;;
2023;SDS011;1016;48.770;9.154;2023-10-13T02:15:44;33.10;;;5.60;;
2023;SDS011;1016;48.770;9.154;2023-10-13T02:18:12;32.93;;;4.97;;
2023;SDS011;1016;48.770;9.154;2023-10-13T02:21:01;32.33;;;5.10;;
2023;SDS011;1016;48.770;9.154;2023-10-13T02:23:39;33.17;;;5.43;;
2023;SDS011;1016;48.770;9.154;2023-10-13T02:26:11;32.03;;;5.80;;
2023;SDS011;1016;48.770;9.154;2023-10-13T02:28:40;37.30;;;5.87;;
2023;SDS011;1016;48.770;9.154;2023-10-13T02:31:06;31.10;;;5.70;;
2023;SDS011;1016;48.770;9.154;2023-10-13T02:33:32;33.05;;;6.03;;
2023;SDS011;1016;48.770;9.154;2023-10-13T02:36:00;38.80;;;5.90;;
2023;SDS011;1016;48.770;9.154;2023-10-13T02:38:30;33.30;;;5.80;;
2023;SDS011;1016;48.770;9.154;2023-10-13T02:41:11;32.17;;;5.60;;
2023;SDS011;1016;48.770;9.154;2023-10-13T02:43:50;31.90;;;5.17;;
2023;SDS011;1016;48.770;9.154;2023-10-13T02:46:17;34.30;;;5.90;;
2023;SDS011;1016;48.770;9.154;2023-10-13T02:48:46;32.40;;;5.47;;
2023;SDS011;1016;48.770;9.154;2023-10-13T02:51:18;34.63;;;5.17;;
2023;SDS011;1016;48.770;9.154;2023-10-13T02:53:47;30.47;;;4.73;;
2023;SDS011;1016;48.770;9.154;2023-10-13T02:56:17;33.60;;;5.70;;
2023;SDS011;1016;48.770;9.154;2023-10-13T02:58:51;33.47;;;5.60;;
2023;SDS011;1016;48.770;9.154;2023-10-13T03:01:30;32.67;;;5.40;;
2023;SDS011;1016;48.770;9.154;2023-10-13T03:04:03;35.13;;;6.00;;
2023;SDS011;1016;48.770;9.154;2023-10-13T03:06:31;33.70;;;5.40;;
2023;SDS011;1016;48.770;9.154;2023-10-13T03:09:04;32.30;;;5.17;;
2023;SDS011;1016;48.770;9.154;2023-10-13T03:11:47;34.80;;;5.47;;
2023;SDS011;1016;48.770;9.154;2023-10-13T03:14:14;32.87;;;5.70;;
2023;SDS011;1016;48.770;9.154;2023-10-13T03:16:53;32.40;;;5.10;;
2023;SDS011;1016;48.770;9.154;2023-10-13T03:19:20;36.70;;;5.60;;
2023;SDS011;1016;48.770;9.154;2023-10-13T03:21:46;34.60;;;5.17;;
2023;SDS011;1016;48.770;9.154;2023-10-13T03:24:22;34.30;;;5.53;;
2023;SDS011;1016;48.770;9.154;2023-10-13T03:26:58;31.67;;;5.67;;
2023;SDS011;1016;48.770;9.154;2023-10-13T03:29:32;32.53;;;5.20;;
2023;SDS011;1016;48.770;9.154;2023-10-13T03:32:10;34.00;;;5.73;;
2023;SDS011;1016;48.770;9.154;2023-10-13T03:34:42;32.87;;;5.17;;
2023;SDS011;1016;48.770;9.154;2023-10-13T03:37:18;33.13;;;4.90;;
2023;SDS011;1016;48.770;9.154;2023-10-13T03:40:04;33.33;;;4.90;;
2023;SDS011;1016;48.770;9.154;2023-10-13T03:42:46;34.27;;;4.80;;
2023;SDS011;1016;48.770;9.154;2023-10-13T03:48:08;32.23;;;5.10;;
2023;SDS011;1016;48.770;9.154;2023-10-13T03:50:53;31.27;;;4.93;;
2023;SDS011;1016;48.770;9.154;2023-10-13T03:53:33;32.30;;;5.17;;
2023;SDS011;1016;48.770;9.154;2023-10-13T03:56:03;31.90;;;5.60;;
2023;SDS011;1016;48.770;9.154;2023-10-13T03:58:51;32.27;;;4.93;;
2023;SDS011;1016;48.770;9.154;2023-10-13T04:01:19;37.07;;;5.27;;
2023;SDS011;1016;48.770;9.154;2023-10-13T04:04:00;32.40;;;5.50;;
2023;SDS011;1016;48.770;9.154;2023-10-13T04:06:31;33.40;;;5.43;;
2023;SDS011;1016;48.770;9.154;2023-10-13T04:09:16;34.53;;;5.97;;
2023;SDS011;1016;48.770;9.154;2023-10-13T04:11:58;35.20;;;5.10;;
2023;SDS011;1016;48.770;9.154;2023-10-13T04:14:43;32.73;;;5.10;;
2023;SDS011;1016;48.770;9.154;2023-10-13T04:17:28;30.60;;;5.20;;
2023;SDS011;1016;48.770;9.154;2023-10-13T04:19:55;34.87;;;5.40;;
2023;SDS011;1016;48.770;9.154;2023-10-13T04:22:31;33.30;;;5.77;;
2023;SDS011;1016;48.770;9.154;2023-10-13T04:25:16;33.43;;;5.97;;
2023;SDS011;1016;48.770;9.154;2023-10-13T04:28:00;35.60;;;5.60;;
2023;SDS011;1016;48.770;9.154;2023-10-13T04:33:30;34.47;;;5.70;;
2023;SDS011;1016;48.770;9.154;2023-10-13T04:38:44;32.63;;;5.23;;
2023;SDS011;1016;48.770;9.154;2023-10-13T04:41:29;36.57;;;5.03;;
2023;SDS011;1016;48.770;9.154;2023-10-13T04:44:01;33.10;;;5.70;;
2023;SDS011;1016;48.770;9.154;2023-10-13T04:46:30;33.47;;;5.13;;
2023;SDS011;1016;48.770;9.154;2023-10-13T04:49:11;31.50;;;5.30;;
2023;SDS011;1016;48.770;9.154;2023-10-13T04:51:54;35.97;;;5.70;;
2023;SDS011;1016;48.770;9.154;2023-10-13T04:54:52;32.47;;;5.80;;
2023;SDS011;1016;48.770;9.154;2023-10-13T04:57:24;32.33;;;4.93;;
2023;SDS011;1016;48.770;9.154;2023-10-13T05:00:04;35.10;;;5.57;;
2023;SDS011;1016;48.770;9.154;2023-10-13T05:02:46;33.73;;;5.87;;
2023;SDS011;1016;48.770;9.154;2023-10-13T05:05:31;33.13;;;5.60;;
2023;SDS011;1016;48.770;9.154;2023-10-13T05:08:15;36.10;;;5.23;;
2023;SDS011;1016;48.770;9.154;2023-10-13T05:11:03;32.97;;;4.60;;
2023;SDS011;1016;48.770;9.154;2023-10-13T05:13:48;33.37;;;5.23;;
2023;SDS011;1016;48.770;9.154;2023-10-13T05:16:32;33.50;;;4.80;;
2023;SDS011;1016;48.770;9.154;2023-10-13T05:19:16;33.10;;;5.47;;
2023;SDS011;1016;48.770;9.154;2023-10-13T05:22:00;36.53;;;5.43;;
2023;SDS011;1016;48.770;9.154;2023-10-13T05:24:44;32.50;;;4.90;;
2023;SDS011;1016;48.770;9.154;2023-10-13T05:27:28;32.50;;;5.13;;
2023;SDS011;1016;48.770;9.154;2023-10-13T05:30:13;33.50;;;5.27;;
2023;SDS011;1016;48.770;9.154;2023-10-13T05:32:57;33.63;;;5.07;;
2023;SDS011;1016;48.770;9.154;2023-10-13T05:35:42;33.30;;;4.97;;
2023;SDS011;1016;48.770;9.154;2023-10-13T05:38:26;33.63;;;5.37;;
2023;SDS011;1016;48.770;9.154;2023-10-13T05:41:10;32.13;;;4.93;;
2023;SDS011;1016;48.770;9.154;2023-10-13T05:43:54;34.07;;;5.33;;
2023;SDS011;1016;48.770;9.154;2023-10-13T05:46:38;35.13;;;5.40;;
2023;SDS011;1016;48.770;9.154;2023-10-13T05:49:04;34.73;;;5.33;;
2023;SDS011;1016;48.770;9.154;2023-10-13T05:51:36;33.00;;;5.47;;
2023;SDS011;1016;48.770;9.154;2023-10-13T05:54:06;33.13;;;5.20;;
2023;SDS011;1016;48.770;9.154;2023-10-13T05:59:26;34.10;;;6.23;;
2023;SDS011;1016;48.770;9.154;2023-10-13T06:02:14;32.90;;;5.93;;
2023;SDS011;1016;48.770;9.154;2023-10-13T06:05:12;33.53;;;6.13;;
2023;SDS011;1016;48.770;9.154;2023-10-13T06:07:57;33.70;;;5.83;;
2023;SDS011;1016;48.770;9.154;2023-10-13T06:10:43;35.20;;;5.37;;
2023;SDS011;1016;48.770;9.154;2023-10-13T06:13:28;33.10;;;5.70;;
2023;SDS011;1016;48.770;9.154;2023-10-13T06:16:13;32.70;;;5.80;;
2023;SDS011;1016;48.770;9.154;2023-10-13T06:18:59;35.20;;;5.60;;
2023;SDS011;1016;48.770;9.154;2023-10-13T06:21:44;32.57;;;4.77;;
2023;SDS011;1016;48.770;9.154;2023-10-13T06:24:28;34.97;;;5.27;;
2023;SDS011;1016;48.770;9.154;2023-10-13T06:27:13;33.90;;;5.70;;
2023;SDS011;1016;48.770;9.154;2023-10-13T06:29:57;32.97;;;6.27;;
2023;SDS011;1016;48.770;9.154;2023-10-13T06:32:23;35.30;;;6.30;;
2023;SDS011;1016;48.770;9.154;2023-10-13T06:34:52;34.15;;;6.00;;
2023;SDS011;1016;48.770;9.154;2023-10-13T06:37:23;34.13;;;5.93;;
2023;SDS011;1016;48.770;9.154;2023-10-13T06:39:53;33.00;;;4.90;;
2023;SDS011;1016;48.770;9.154;2023-10-13T06:42:24;35.77;;;5.77;;
2023;SDS011;1016;48.770;9.154;2023-10-13T06:44:54;33.50;;;5.37;;
2023;SDS011;1016;48.770;9.154;2023-10-13T06:47:20;40.80;;;5.90;;
2023;SDS011;1016;48.770;9.154;2023-10-13T06:49:46;33.70;;;5.23;;
2023;SDS011;1016;48.770;9.154;2023-10-13T06:52:16;32.80;;;5.20;;
2023;SDS011;1016;48.770;9.154;2023-10-13T06:54:42;33.80;;;6.03;;
2023;SDS011;1016;48.770;9.154;2023-10-13T06:57:08;32.47;;;5.90;;
2023;SDS011;1016;48.770;9.154;2023-10-13T06:59:45;33.23;;;6.37;;
2023;SDS011;1016;48.770;9.154;2023-10-13T07:02:11;32.67;;;6.40;;
2023;SDS011;1016;48.770;9.154;2023-10-13T07:04:46;33.50;;;6.60;;
2023;SDS011;1016;48.770;9.154;2023-10-13T07:07:14;36.20;;;8.10;;
2023;SDS011;1016;48.770;9.154;2023-10-13T07:09:41;37.37;;;7.63;;
2023;SDS011;1016;48.770;9.154;2023-10-13T07:12:20;37.37;;;7.83;;
2023;SDS011;1016;48.770;9.154;2023-10-13T07:14:51;37.90;;;7.07;;
2023;SDS011;1016;48.770;9.154;2023-10-13T07:17:18;36.83;;;7.03;;
2023;SDS011;1016;48.770;9.154;2023-10-13T07:19:52;35.37;;;7.33;;
2023;SDS011;1016;48.770;9.154;2023-10-13T07:22:31;34.60;;;6.60;;
2023;SDS011;1016;48.770;9.154;2023-10-13T07:25:04;32.50;;;6.10;;
2023;SDS011;1016;48.770;9.154;2023-10-13T07:27:31;34.77;;;6.37;;
2023;SDS011;1016;48.770;9.154;2023-10-13T07:30:06;35.00;;;5.57;;
2023;SDS011;1016;48.770;9.154;2023-10-13T07:32:42;31.20;;;5.50;;
2023;SDS011;1016;48.770;9.154;2023-10-13T07:35:14;34.50;;;5.70;;
2023;SDS011;1016;48.770;9.154;2023-10-13T07:37:49;34.10;;;5.97;;
2023;SDS011;1016;48.770;9.154;2023-10-13T07:40:19;34.63;;;5.83;;
2023;SDS011;1016;48.770;9.154;2023-10-13T07:42:52;32.30;;;5.50;;
2023;SDS011;1016;48.770;9.154;2023-10-13T07:45:28;33.10;;;5.67;;
2023;SDS011;1016;48.770;9.154;2023-10-13T07:48:06;34.53;;;5.43;;
2023;SDS011;1016;48.770;9.154;2023-10-13T07:51:02;33.33;;;5.40;;
2023;SDS011;1016;48.770;9.154;2023-10-13T07:53:42;33.13;;;5.83;;
2023;SDS011;1016;48.770;9.154;2023-10-13T07:56:09;34.50;;;5.93;;
2023;SDS011;1016;48.770;9.154;2023-10-13T07:58:37;33.10;;;5.40;;
2023;SDS011;1016;48.770;9.154;2023-10-13T08:01:25;31.43;;;5.47;;
2023;SDS011;1016;48.770;9.154;2023-10-13T08:03:51;31.43;;;5.03;;
2023;SDS011;1016;48.770;9.154;2023-10-13T08:06:30;35.20;;;4.13;;
2023;SDS011;1016;48.770;9.154;2023-10-13T08:08:56;35.17;;;5.50;;
2023;SDS011;1016;48.770;9.154;2023-10-13T08:11:56;35.40;;;4.90;;
2023;SDS011;1016;48.770;9.154;2023-10-13T08:14:23;34.70;;;5.10;;
2023;SDS011;1016;48.770;9.154;2023-10-13T08:19:40;33.77;;;3.83;;
2023;SDS011;1016;48.770;9.154;2023-10-13T08:22:10;34.40;;;4.80;;
2023;SDS011;1016;48.770;9.154;2023-10-13T08:24:48;33.30;;;4.80;;
2023;SDS011;1016;48.770;9.154;2023-10-13T08:27:49;32.50;;;4.47;;
2023;SDS011;1016;48.770;9.154;2023-10-13T08:30:35;32.80;;;4.40;;
2023;SDS011;1016;48.770;9.154;2023-10-13T08:33:16;34.40;;;4.00;;
2023;SDS011;1016;48.770;9.154;2023-10-13T08:35:42;37.40;;;4.13;;
2023;SDS011;1016;48.770;9.154;2023-10-13T08:38:19;32.63;;;4.60;;
2023;SDS011;1016;48.770;9.154;2023-10-13T08:40:53;32.23;;;4.30;;
2023;SDS011;1016;48.770;9.154;2023-10-13T08:43:38;34.30;;;4.83;;
2023;SDS011;1016;48.770;9.154;2023-10-13T08:46:16;31.47;;;4.30;;
2023;SDS011;1016;48.770;9.154;2023-10-13T08:48:56;33.20;;;4.83;;
2023;SDS011;1016;48.770;9.154;2023-10-13T08:51:53;35.10;;;4.80;;
2023;SDS011;1016;48.770;9.154;2023-10-13T08:54:30;32.70;;;3.67;;
2023;SDS011;1016;48.770;9.154;2023-10-13T08:57:04;31.57;;;3.80;;
2023;SDS011;1016;48.770;9.154;2023-10-13T08:59:58;38.20;;;4.70;;
2023;SDS011;1016;48.770;9.154;2023-10-13T09:02:43;34.33;;;4.43;;
2023;SDS011;1016;48.770;9.154;2023-10-13T09:05:38;36.43;;;4.00;;
2023;SDS011;1016;48.770;9.154;2023-10-13T09:08:07;35.50;;;4.30;;
2023;SDS011;1016;48.770;9.154;2023-10-13T09:10:41;36.20;;;4.63;;
2023;SDS011;1016;48.770;9.154;2023-10-13T09:13:10;34.73;;;4.07;;
2023;SDS011;1016;48.770;9.154;2023-10-13T09:15:43;33.40;;;4.43;;
2023;SDS011;1016;48.770;9.154;2023-10-13T09:18:25;35.50;;;4.13;;
2023;SDS011;1016;48.770;9.154;2023-10-13T09:21:14;33.53;;;4.30;;
2023;SDS011;1016;48.770;9.154;2023-10-13T09:23:59;33.97;;;4.20;;
2023;SDS011;1016;48.770;9.154;2023-10-13T09:26:47;35.50;;;4.90;;
2023;SDS011;1016;48.770;9.154;2023-10-13T09:29:20;34.03;;;4.07;;
2023;SDS011;1016;48.770;9.154;2023-10-13T09:31:47;36.87;;;3.93;;
2023;SDS011;1016;48.770;9.154;2023-10-13T09:34:24;32.83;;;4.20;;
2023;SDS011;1016;48.770;9.154;2023-10-13T09:36:55;34.37;;;4.07;;
2023;SDS011;1016;48.770;9.154;2023-10-13T09:39:28;33.70;;;4.13;;
2023;SDS011;1016;48.770;9.154;2023-10-13T09:42:20;31.93;;;3.60;;
2023;SDS011;1016;48.770;9.154;2023-10-13T09:44:49;33.80;;;4.33;;
2023;SDS011;1016;48.770;9.154;2023-10-13T09:47:17;30.57;;;3.63;;
2023;SDS011;1016;48.770;9.154;2023-10-13T09:49:51;34.87;;;4.20;;
2023;SDS011;1016;48.770;9.154;2023-10-13T09:52:22;32.90;;;4.67;;
2023;SDS011;1016;48.770;9.154;2023-10-13T09:55:04;31.77;;;3.70;;
2023;SDS011;1016;48.770;9.154;2023-10-13T09:57:39;35.93;;;4.23;;
2023;SDS011;1016;48.770;9.154;2023-10-13T10:00:13;32.90;;;3.60;;
2023;SDS011;1016;48.770;9.154;2023-10-13T10:03:09;32.90;;;4.00;;
2023;SDS011;1016;48.770;9.154;2023-10-13T10:05:58;36.50;;;4.23;;
2023;SDS011;1016;48.770;9.154;2023-10-13T10:08:29;32.10;;;4.00;;
2023;SDS011;1016;48.770;9.154;2023-10-13T10:14:10;35.27;;;4.20;;
2023;SDS011;1016;48.770;9.154;2023-10-13T10:19:49;32.73;;;4.53;;
2023;SDS011;1016;48.770;9.154;2023-10-13T10:22:30;33.90;;;4.97;;
2023;SDS011;1016;48.770;9.154;2023-10-13T10:25:04;32.13;;;4.23;;
2023;SDS011;1016;48.770;9.154;2023-10-13T10:27:54;32.47;;;4.00;;
2023;SDS011;1016;48.770;9.154;2023-10-13T10:30:28;33.97;;;4.47;;
2023;SDS011;1016;48.770;9.154;2023-10-13T10:32:57;34.40;;;4.00;;
2023;SDS011;1016;48.770;9.154;2023-10-13T10:35:24;34.50;;;3.83;;
2023;SDS011;1016;48.770;9.154;2023-10-13T10:38:07;32.07;;;4.03;;
2023;SDS011;1016;48.770;9.154;2023-10-13T10:40:47;33.77;;;3.70;;
2023;SDS011;1016;48.770;9.154;2023-10-13T10:43:22;31.90;;;4.00;;
2023;SDS011;1016;48.770;9.154;2023-10-13T10:45:52;33.00;;;3.83;;
2023;SDS011;1016;48.770;9.154;2023-10-13T10:48:24;35.47;;;3.97;;
2023;SDS011;1016;48.770;9.154;2023-10-13T10:50:56;36.07;;;3.93;;
2023;SDS011;1016;48.770;9.154;2023-10-13T10:53:24;32.80;;;4.10;;
2023;SDS011;1016;48.770;9.154;2023-10-13T10:56:11;33.03;;;4.30;;
2023;SDS011;1016;48.770;9.154;2023-10-13T10:58:56;33.57;;;3.33;;
2023;SDS011;1016;48.770;9.154;2023-10-13T11:01:25;32.80;;;4.17;;
2023;SDS011;1016;48.770;9.154;2023-10-13T11:04:12;32.40;;;3.80;;
2023;SDS011;1016;48.770;9.154;2023-10-13T11:06:47;35.80;;;4.60;;
2023;SDS011;1016;48.770;9.154;2023-10-13T11:09:14;32.50;;;4.17;;
2023;SDS011;1016;48.770;9.154;2023-10-13T11:11:52;31.27;;;3.77;;
2023;SDS011;1016;48.770;9.154;2023-10-13T11:14:26;34.20;;;4.10;;
2023;SDS011;1016;48.770;9.154;2023-10-13T11:16:53;32.87;;;3.90;;
2023;SDS011;1016;48.770;9.154;2023-10-13T11:19:39;35.40;;;4.17;;
2023;SDS011;1016;48.770;9.154;2023-10-13T11:22:12;32.97;;;3.80;;
2023;SDS011;1016;48.770;9.154;2023-10-13T11:25:07;31.20;;;3.90;;
2023;SDS011;1016;48.770;9.154;2023-10-13T11:27:39;32.07;;;3.90;;
2023;SDS011;1016;48.770;9.154;2023-10-13T11:30:16;32.47;;;4.37;;
2023;SDS011;1016;48.770;9.154;2023-10-13T11:33:08;32.60;;;4.03;;
2023;SDS011;1016;48.770;9.154;2023-10-13T11:35:36;32.80;;;3.80;;
2023;SDS011;1016;48.770;9.154;2023-10-13T11:38:17;32.67;;;3.90;;
2023;SDS011;1016;48.770;9.154;2023-10-13T11:40:59;31.83;;;3.80;;
2023;SDS011;1016;48.770;9.154;2023-10-13T11:43:41;32.90;;;4.17;;
2023;SDS011;1016;48.770;9.154;2023-10-13T11:46:24;32.13;;;3.80;;
2023;SDS011;1016;48.770;9.154;2023-10-13T11:49:00;33.40;;;4.43;;
2023;SDS011;1016;48.770;9.154;2023-10-13T11:51:49;33.33;;;4.43;;
2023;SDS011;1016;48.770;9.154;2023-10-13T11:54:15;32.70;;;4.33;;
2023;SDS011;1016;48.770;9.154;2023-10-13T11:56:43;32.93;;;4.23;;
2023;SDS011;1016;48.770;9.154;2023-10-13T11:59:09;32.37;;;3.80;;
2023;SDS011;1016;48.770;9.154;2023-10-13T12:01:46;33.50;;;4.07;;
2023;SDS011;1016;48.770;9.154;2023-10-13T12:04:32;33.60;;;4.37;;
2023;SDS011;1016;48.770;9.154;2023-10-13T12:07:13;33.37;;;4.40;;
2023;SDS011;1016;48.770;9.154;2023-10-13T12:09:39;33.20;;;4.37;;
2023;SDS011;1016;48.770;9.154;2023-10-13T12:12:26;33.60;;;4.50;;
2023;SDS011;1016;48.770;9.154;2023-10-13T12:14:53;31.80;;;3.63;;
2023;SDS011;1016;48.770;9.154;2023-10-13T12:20:32;32.43;;;3.50;;
2023;SDS011;1016;48.770;9.154;2023-10-13T12:22:58;31.20;;;3.53;;
2023;SDS011;1016;48.770;9.154;2023-10-13T12:25:37;32.43;;;4.03;;
2023;SDS011;1016;48.770;9.154;2023-10-13T12:28:30;31.90;;;3.80;;
2023;SDS011;1016;48.770;9.154;2023-10-13T12:31:05;32.17;;;4.30;;
2023;SDS011;1016;48.770;9.154;2023-10-13T12:33:36;35.87;;;3.90;;
2023;SDS011;1016;48.770;9.154;2023-10-13T12:36:02;34.00;;;3.80;;
2023;SDS011;1016;48.770;9.154;2023-10-13T12:38:36;31.40;;;4.07;;
2023;SDS011;1016;48.770;9.154;2023-10-13T12:41:18;33.22;;;3.80;;
2023;SDS011;1016;48.770;9.154;2023-10-13T12:44:03;35.00;;;4.20;;
2023;SDS011;1016;48.770;9.154;2023-10-13T12:46:48;31.20;;;3.90;;
2023;SDS011;1016;48.770;9.154;2023-10-13T12:49:36;33.70;;;4.50;;
2023;SDS011;1016;48.770;9.154;2023-10-13T12:52:12;31.37;;;3.73;;
2023;SDS011;1016;48.770;9.154;2023-10-13T12:54:51;33.07;;;4.20;;
2023;SDS011;1016;48.770;9.154;2023-10-13T12:57:21;33.37;;;4.40;;
2023;SDS011;1016;48.770;9.154;2023-10-13T12:59:50;32.33;;;4.40;;
2023;SDS011;1016;48.770;9.154;2023-10-13T13:02:19;31.87;;;3.90;;
2023;SDS011;1016;48.770;9.154;2023-10-13T13:04:52;31.70;;;3.90;;
2023;SDS011;1016;48.770;9.154;2023-10-13T13:07:37;32.40;;;4.47;;
2023;SDS011;1016;48.770;9.154;2023-10-13T13:10:12;34.93;;;6.17;;
2023;SDS011;1016;48.770;9.154;2023-10-13T13:12:39;35.07;;;4.10;;
2023;SDS011;1016;48.770;9.154;2023-10-13T13:15:08;36.53;;;4.23;;
2023;SDS011;1016;48.770;9.154;2023-10-13T13:17:39;34.43;;;4.77;;
2023;SDS011;1016;48.770;9.154;2023-10-13T13:20:08;34.90;;;4.00;;
2023;SDS011;1016;48.770;9.154;2023-10-13T13:22:51;32.00;;;4.00;;
2023;SDS011;1016;48.770;9.154;2023-10-13T13:25:22;35.40;;;4.47;;
2023;SDS011;1016;48.770;9.154;2023-10-13T13:27:56;31.23;;;3.43;;
2023;SDS011;1016;48.770;9.154;2023-10-13T13:30:24;31.30;;;4.13;;
2023;SDS011;1016;48.770;9.154;2023-10-13T13:32:59;31.27;;;3.87;;
2023;SDS011;1016;48.770;9.154;2023-10-13T13:35:29;31.67;;;4.60;;
2023;SDS011;1016;48.770;9.154;2023-10-13T13:37:59;32.37;;;3.83;;
2023;SDS011;1016;48.770;9.154;2023-10-13T13:40:37;33.90;;;4.40;;
2023;SDS011;1016;48.770;9.154;2023-10-13T13:43:03;33.50;;;3.97;;
2023;SDS011;1016;48.770;9.154;2023-10-13T13:45:28;32.93;;;4.20;;
2023;SDS011;1016;48.770;9.154;2023-10-13T13:47:56;31.23;;;3.67;;
2023;SDS011;1016;48.770;9.154;2023-10-13T13:50:23;32.70;;;3.80;;
2023;SDS011;1016;48.770;9.154;2023-10-13T13:52:54;32.70;;;3.97;;
2023;SDS011;1016;48.770;9.154;2023-10-13T13:55:24;31.40;;;3.63;;
2023;SDS011;1016;48.770;9.154;2023-10-13T13:57:55;32.03;;;3.67;;
2023;SDS011;1016;48.770;9.154;2023-10-13T14:00:21;31.80;;;3.70;;
2023;SDS011;1016;48.770;9.154;2023-10-13T14:03:07;33.17;;;3.57;;
2023;SDS011;1016;48.770;9.154;2023-10-13T14:05:56;31.40;;;3.60;;
2023;SDS011;1016;48.770;9.154;2023-10-13T14:08:24;31.27;;;3.60;;
2023;SDS011;1016;48.770;9.154;2023-10-13T14:10:51;37.50;;;4.17;;
2023;SDS011;1016;48.770;9.154;2023-10-13T14:13:35;32.60;;;4.20;;
2023;SDS011;1016;48.770;9.154;2023-10-13T14:16:13;32.20;;;4.53;;
2023;SDS011;1016;48.770;9.154;2023-10-13T14:18:51;33.00;;;4.40;;
2023;SDS011;1016;48.770;9.154;2023-10-13T14:21:18;33.10;;;3.90;;
2023;SDS011;1016;48.770;9.154;2023-10-13T14:23:47;33.80;;;4.20;;
2023;SDS011;1016;48.770;9.154;2023-10-13T14:26:17;31.57;;;3.33;;
2023;SDS011;1016;48.770;9.154;2023-10-13T14:28:49;34.93;;;3.63;;
2023;SDS011;1016;48.770;9.154;2023-10-13T14:31:33;32.13;;;3.70;;
2023;SDS011;1016;48.770;9.154;2023-10-13T14:34:02;33.07;;;3.93;;
2023;SDS011;1016;48.770;9.154;2023-10-13T14:36:28;32.60;;;4.40;;
2023;SDS011;1016;48.770;9.154;2023-10-13T14:38:54;32.30;;;3.60;;
2023;SDS011;1016;48.770;9.154;2023-10-13T14:41:21;33.23;;;3.47;;
2023;SDS011;1016;48.770;9.154;2023-10-13T14:43:46;32.00;;;3.50;;
2023;SDS011;1016;48.770;9.154;2023-10-13T14:46:15;31.20;;;3.50;;
2023;SDS011;1016;48.770;9.154;2023-10-13T14:48:42;31.30;;;3.70;;
2023;SDS011;1016;48.770;9.154;2023-10-13T14:51:11;33.80;;;3.87;;
2023;SDS011;1016;48.770;9.154;2023-10-13T14:53:42;30.30;;;3.17;;
2023;SDS011;1016;48.770;9.154;2023-10-13T14:56:14;31.50;;;3.87;;
2023;SDS011;1016;48.770;9.154;2023-10-13T14:58:40;33.70;;;4.10;;
2023;SDS011;1016;48.770;9.154;2023-10-13T15:01:20;33.73;;;4.03;;
2023;SDS011;1016;48.770;9.154;2023-10-13T15:03:50;32.60;;;3.67;;
2023;SDS011;1016;48.770;9.154;2023-10-13T15:06:24;31.27;;;3.50;;
2023;SDS011;1016;48.770;9.154;2023-10-13T15:08:54;32.90;;;3.40;;
2023;SDS011;1016;48.770;9.154;2023-10-13T15:11:29;32.07;;;3.07;;
2023;SDS011;1016;48.770;9.154;2023-10-13T15:14:05;32.03;;;3.57;;
2023;SDS011;1016;48.770;9.154;2023-10-13T15:16:32;31.10;;;3.50;;
2023;SDS011;1016;48.770;9.154;2023-10-13T15:19:00;32.60;;;3.07;;
2023;SDS011;1016;48.770;9.154;2023-10-13T15:21:28;31.33;;;3.20;;
2023;SDS011;1016;48.770;9.154;2023-10-13T15:24:01;32.73;;;3.07;;
2023;SDS011;1016;48.770;9.154;2023-10-13T15:26:38;31.27;;;3.27;;
2023;SDS011;1016;48.770;9.154;2023-10-13T15:29:07;31.73;;;3.20;;
2023;SDS011;1016;48.770;9.154;2023-10-13T15:31:37;31.37;;;3.60;;
2023;SDS011;1016;48.770;9.154;2023-10-13T15:34:16;30.57;;;3.30;;
2023;SDS011;1016;48.770;9.154;2023-10-13T15:36:43;33.07;;;3.10;;
2023;SDS011;1016;48.770;9.154;2023-10-13T15:39:09;32.07;;;3.17;;
2023;SDS011;1016;48.770;9.154;2023-10-13T15:41:35;30.30;;;3.03;;
2023;SDS011;1016;48.770;9.154;2023-10-13T15:44:05;33.17;;;3.87;;
2023;SDS011;1016;48.770;9.154;2023-10-13T15:46:35;31.30;;;3.30;;
2023;SDS011;1016;48.770;9.154;2023-10-13T15:49:05;32.23;;;3.20;;
2023;SDS011;1016;48.770;9.154;2023-10-13T15:51:34;34.23;;;3.43;;
2023;SDS011;1016;48.770;9.154;2023-10-13T15:54:03;30.60;;;3.30;;
2023;SDS011;1016;48.770;9.154;2023-10-13T15:56:29;31.20;;;3.23;;
2023;SDS011;1016;48.770;9.154;2023-10-13T15:58:58;31.10;;;3.00;;
2023;SDS011;1016;48.770;9.154;2023-10-13T16:01:26;33.53;;;4.60;;
2023;SDS011;1016;48.770;9.154;2023-10-13T16:03:53;35.03;;;6.07;;
2023;SDS011;1016;48.770;9.154;2023-10-13T16:06:19;34.10;;;5.37;;
2023;SDS011;1016;48.770;9.154;2023-10-13T16:08:47;33.50;;;4.30;;